createdAt,value
2023-04-21T00:08:42.795Z,7.8
2023-04-21T00:18:42.695Z,7.8
2023-04-21T00:28:42.688Z,7.8
2023-04-21T00:38:42.584Z,7.8
2023-04-21T00:48:43.171Z,7.8
2023-04-21T00:58:42.830Z,7.8
2023-04-21T01:08:42.771Z,7.7
2023-04-21T01:18:42.703Z,7.7
2023-04-21T01:28:42.984Z,7.7
2023-04-21T01:38:43.786Z,7.7
2023-04-21T01:48:42.717Z,7.7
2023-04-21T01:58:42.763Z,7.7
2023-04-21T02:08:42.782Z,7.7
2023-04-21T02:18:42.664Z,7.8
2023-04-21T02:28:43.306Z,7.7
2023-04-21T02:38:42.901Z,7.8
2023-04-21T02:48:43.141Z,7.8
2023-04-21T02:58:42.612Z,7.8
2023-04-21T03:08:42.793Z,7.8
2023-04-21T03:18:42.690Z,7.8
2023-04-21T03:28:42.607Z,7.7
2023-04-21T03:38:43.932Z,7.7
2023-04-21T03:48:43.277Z,7.8
2023-04-21T03:58:43.254Z,7.8
2023-04-21T04:08:44.414Z,7.8
2023-04-21T04:18:43.141Z,7.9
2023-04-21T04:28:43.182Z,7.9
2023-04-21T04:38:43.128Z,7.9
2023-04-21T04:48:43.608Z,8.0
2023-04-21T04:58:43.197Z,8.0
2023-04-21T05:08:44.268Z,8.0
2023-04-21T05:18:43.276Z,8.1
2023-04-21T05:28:43.141Z,8.2
2023-04-21T05:38:43.958Z,8.4
2023-04-21T05:48:43.163Z,8.5
2023-04-21T05:58:43.265Z,8.6
2023-04-21T06:08:43.125Z,8.7
2023-04-21T06:18:43.174Z,8.8
2023-04-21T06:28:43.807Z,8.9
2023-04-21T06:38:43.267Z,9.0
2023-04-21T06:48:43.937Z,9.1
2023-04-21T06:58:43.190Z,9.1
2023-04-21T07:08:43.127Z,9.1
2023-04-21T07:18:43.157Z,9.0
2023-04-21T07:28:43.165Z,9.1
2023-04-21T07:38:43.705Z,9.1
2023-04-21T07:48:45.325Z,9.3
2023-04-21T07:58:44.862Z,9.4
2023-04-21T08:08:49.442Z,9.5
2023-04-21T08:18:46.899Z,9.5
2023-04-21T08:28:46.690Z,9.6
2023-04-21T08:38:47.373Z,9.8
2023-04-21T08:48:48.896Z,10.0
2023-04-21T08:58:46.491Z,10.2
2023-04-21T09:08:46.612Z,10.5
2023-04-21T09:18:46.673Z,10.7
2023-04-21T09:28:46.513Z,10.9
2023-04-21T09:38:47.291Z,11.1
2023-04-21T09:48:46.718Z,11.7
2023-04-21T09:58:46.336Z,12.1
2023-04-21T10:08:46.360Z,12.3
2023-04-21T10:18:46.433Z,12.5
2023-04-21T10:28:46.717Z,12.6
2023-04-21T10:38:49.425Z,12.7
2023-04-21T10:48:46.400Z,12.9
2023-04-21T10:58:46.234Z,13.2
2023-04-21T11:08:46.782Z,13.4
2023-04-21T11:18:46.404Z,13.4
2023-04-21T11:28:46.312Z,13.5
2023-04-21T11:38:46.462Z,13.7
2023-04-21T11:48:46.587Z,13.7
2023-04-21T11:58:46.615Z,13.7
2023-04-21T12:08:46.404Z,13.7
2023-04-21T12:18:46.685Z,14.0
2023-04-21T12:28:46.308Z,14.5
2023-04-21T12:38:46.378Z,14.9
2023-04-21T12:48:46.352Z,15.9
2023-04-21T12:58:46.610Z,15.9
2023-04-21T13:08:46.361Z,15.8
2023-04-21T13:18:49.965Z,15.8
2023-04-21T13:28:46.357Z,16.0
2023-04-21T13:38:46.325Z,16.3
2023-04-21T13:48:46.310Z,16.4
2023-04-21T13:58:46.535Z,16.7
2023-04-21T14:08:46.568Z,16.7
2023-04-21T14:18:46.478Z,16.5
2023-04-21T14:28:46.443Z,16.2
2023-04-21T14:38:46.551Z,15.9
2023-04-21T14:48:46.636Z,15.9
2023-04-21T14:58:46.395Z,16.1
2023-04-21T15:08:46.548Z,16.1
2023-04-21T15:18:46.422Z,15.8
2023-04-21T15:28:47.116Z,15.6
2023-04-21T15:38:46.320Z,15.6
2023-04-21T15:48:46.855Z,15.8
2023-04-21T15:58:47.258Z,16.1
2023-04-21T16:08:46.273Z,16.2
2023-04-21T16:18:46.356Z,16.2
2023-04-21T16:28:46.964Z,16.2
2023-04-21T16:38:46.399Z,16.2
2023-04-21T16:48:46.457Z,16.0
2023-04-21T16:58:46.872Z,16.0
2023-04-21T17:08:46.553Z,16.1
2023-04-21T17:18:46.295Z,16.2
2023-04-21T17:28:46.328Z,16.2
2023-04-21T17:38:46.706Z,15.7
2023-04-21T17:48:46.780Z,15.3
2023-04-21T17:58:46.306Z,15.3
2023-04-21T18:08:46.975Z,15.3
2023-04-21T18:18:46.637Z,15.0
2023-04-21T18:28:46.345Z,14.5
2023-04-21T18:38:46.373Z,14.3
2023-04-21T18:48:46.491Z,14.4
2023-04-21T18:58:46.487Z,13.8
2023-04-21T19:08:47.243Z,12.5
2023-04-21T19:18:47.578Z,11.8
2023-04-21T19:28:46.362Z,11.7
2023-04-21T19:38:46.395Z,11.6
2023-04-21T19:48:46.313Z,11.5
2023-04-21T19:58:46.323Z,11.2
2023-04-21T20:08:46.382Z,11.0
2023-04-21T20:18:46.328Z,11.0
2023-04-21T20:28:46.748Z,10.9
2023-04-21T20:38:46.605Z,11.0
2023-04-21T20:48:47.759Z,10.8
2023-04-21T20:58:46.817Z,10.8
2023-04-21T21:08:46.542Z,11.1
2023-04-21T21:18:46.529Z,11.0
2023-04-21T21:28:46.599Z,11.1
2023-04-21T21:38:46.474Z,10.8
2023-04-21T21:48:46.531Z,10.6
2023-04-21T21:58:46.905Z,10.3
2023-04-21T22:08:46.708Z,10.1
2023-04-21T22:18:46.836Z,10.0
2023-04-21T22:28:46.910Z,9.9
2023-04-21T22:38:47.498Z,9.8
2023-04-21T22:48:46.386Z,9.7
2023-04-21T22:58:46.331Z,9.4
2023-04-21T23:08:47.748Z,9.3
2023-04-21T23:18:47.111Z,9.1
2023-04-21T23:28:49.296Z,8.8
2023-04-21T23:38:48.388Z,8.5
2023-04-21T23:48:47.080Z,8.3
2023-04-21T23:58:46.381Z,8.3
